sensor_id;sensor_type;location;lat;lon;timestamp;P1;durP1;ratioP1;P2;durP2;ratioP2
7150;SDS011;3617;48.836;9.172;2023-01-30T00:01:47;19.90;;;10.47;;
7150;SDS011;3617;48.836;9.172;2023-01-30T00:04:13;16.70;;;10.10;;
7150;SDS011;3617;48.836;9.172;2023-01-30T00:06:39;19.40;;;11.10;;
7150;SDS011;3617;48.836;9.172;2023-01-30T00:09:06;16.60;;;10.57;;
7150;SDS011;3617;48.836;9.172;2023-01-30T00:11:32;18.80;;;10.70;;
7150;SDS011;3617;48.836;9.172;2023-01-30T00:13:58;19.07;;;9.83;;
7150;SDS011;3617;48.836;9.172;2023-01-30T00:16:25;16.33;;;9.50;;
7150;SDS011;3617;48.836;9.172;2023-01-30T00:18:51;17.37;;;10.13;;
7150;SDS011;3617;48.836;9.172;2023-01-30T00:21:18;17.03;;;9.63;;
7150;SDS011;3617;48.836;9.172;2023-01-30T00:23:44;19.30;;;10.53;;
7150;SDS011;3617;48.836;9.172;2023-01-30T00:26:10;18.50;;;11.07;;
7150;SDS011;3617;48.836;9.172;2023-01-30T00:28:36;17.70;;;10.63;;
7150;SDS011;3617;48.836;9.172;2023-01-30T00:31:03;15.67;;;9.43;;
7150;SDS011;3617;48.836;9.172;2023-01-30T00:33:29;18.23;;;9.60;;
7150;SDS011;3617;48.836;9.172;2023-01-30T00:35:55;17.00;;;9.53;;
7150;SDS011;3617;48.836;9.172;2023-01-30T00:38:22;16.33;;;9.73;;
7150;SDS011;3617;48.836;9.172;2023-01-30T00:40:48;17.80;;;9.77;;
7150;SDS011;3617;48.836;9.172;2023-01-30T00:43:15;16.80;;;10.07;;
7150;SDS011;3617;48.836;9.172;2023-01-30T00:46:01;18.40;;;9.80;;
7150;SDS011;3617;48.836;9.172;2023-01-30T00:48:46;17.73;;;9.67;;
7150;SDS011;3617;48.836;9.172;2023-01-30T00:51:12;15.87;;;9.63;;
7150;SDS011;3617;48.836;9.172;2023-01-30T00:53:38;17.80;;;10.27;;
7150;SDS011;3617;48.836;9.172;2023-01-30T00:56:04;20.63;;;10.93;;
7150;SDS011;3617;48.836;9.172;2023-01-30T00:58:31;18.50;;;10.00;;
7150;SDS011;3617;48.836;9.172;2023-01-30T01:00:57;19.73;;;10.47;;
7150;SDS011;3617;48.836;9.172;2023-01-30T01:03:23;14.30;;;8.60;;
7150;SDS011;3617;48.836;9.172;2023-01-30T01:05:50;22.80;;;10.60;;
7150;SDS011;3617;48.836;9.172;2023-01-30T01:08:16;18.03;;;10.10;;
7150;SDS011;3617;48.836;9.172;2023-01-30T01:10:42;19.43;;;10.50;;
7150;SDS011;3617;48.836;9.172;2023-01-30T01:13:08;24.13;;;11.23;;
7150;SDS011;3617;48.836;9.172;2023-01-30T01:15:34;18.67;;;10.93;;
7150;SDS011;3617;48.836;9.172;2023-01-30T01:18:00;19.03;;;10.23;;
7150;SDS011;3617;48.836;9.172;2023-01-30T01:20:27;22.70;;;11.50;;
7150;SDS011;3617;48.836;9.172;2023-01-30T01:22:53;16.27;;;10.07;;
7150;SDS011;3617;48.836;9.172;2023-01-30T01:25:20;19.73;;;11.10;;
7150;SDS011;3617;48.836;9.172;2023-01-30T01:27:46;18.03;;;10.37;;
7150;SDS011;3617;48.836;9.172;2023-01-30T01:30:12;21.23;;;10.67;;
7150;SDS011;3617;48.836;9.172;2023-01-30T01:32:38;22.20;;;11.47;;
7150;SDS011;3617;48.836;9.172;2023-01-30T01:35:04;20.60;;;10.13;;
7150;SDS011;3617;48.836;9.172;2023-01-30T01:37:30;17.17;;;9.63;;
7150;SDS011;3617;48.836;9.172;2023-01-30T01:39:56;19.47;;;9.83;;
7150;SDS011;3617;48.836;9.172;2023-01-30T01:42:41;15.97;;;8.57;;
7150;SDS011;3617;48.836;9.172;2023-01-30T01:47:37;20.43;;;10.93;;
7150;SDS011;3617;48.836;9.172;2023-01-30T01:50:04;19.63;;;10.60;;
7150;SDS011;3617;48.836;9.172;2023-01-30T01:52:31;17.17;;;9.77;;
7150;SDS011;3617;48.836;9.172;2023-01-30T01:54:58;18.43;;;10.87;;
7150;SDS011;3617;48.836;9.172;2023-01-30T01:57:27;18.13;;;10.70;;
7150;SDS011;3617;48.836;9.172;2023-01-30T02:02:23;18.67;;;10.40;;
7150;SDS011;3617;48.836;9.172;2023-01-30T02:04:51;21.70;;;11.10;;
7150;SDS011;3617;48.836;9.172;2023-01-30T02:07:34;20.30;;;9.57;;
7150;SDS011;3617;48.836;9.172;2023-01-30T02:10:02;19.73;;;10.13;;
7150;SDS011;3617;48.836;9.172;2023-01-30T02:12:29;17.93;;;10.20;;
7150;SDS011;3617;48.836;9.172;2023-01-30T02:14:55;18.17;;;10.80;;
7150;SDS011;3617;48.836;9.172;2023-01-30T02:17:22;18.33;;;10.40;;
7150;SDS011;3617;48.836;9.172;2023-01-30T02:25:12;20.00;;;10.77;;
7150;SDS011;3617;48.836;9.172;2023-01-30T02:33:00;18.47;;;9.77;;
7150;SDS011;3617;48.836;9.172;2023-01-30T02:35:37;21.87;;;10.23;;
7150;SDS011;3617;48.836;9.172;2023-01-30T02:38:13;19.73;;;9.63;;
7150;SDS011;3617;48.836;9.172;2023-01-30T02:46:06;18.57;;;9.57;;
7150;SDS011;3617;48.836;9.172;2023-01-30T02:51:04;21.40;;;9.87;;
7150;SDS011;3617;48.836;9.172;2023-01-30T02:53:31;18.33;;;9.47;;
7150;SDS011;3617;48.836;9.172;2023-01-30T02:55:58;19.47;;;9.57;;
7150;SDS011;3617;48.836;9.172;2023-01-30T02:58:24;18.93;;;9.63;;
7150;SDS011;3617;48.836;9.172;2023-01-30T03:03:44;19.17;;;10.33;;
7150;SDS011;3617;48.836;9.172;2023-01-30T03:09:05;17.33;;;9.97;;
7150;SDS011;3617;48.836;9.172;2023-01-30T03:11:36;16.87;;;9.90;;
7150;SDS011;3617;48.836;9.172;2023-01-30T03:16:35;21.63;;;11.00;;
7150;SDS011;3617;48.836;9.172;2023-01-30T03:19:03;17.00;;;9.67;;
7150;SDS011;3617;48.836;9.172;2023-01-30T03:21:30;19.83;;;9.93;;
7150;SDS011;3617;48.836;9.172;2023-01-30T03:23:56;19.20;;;9.30;;
7150;SDS011;3617;48.836;9.172;2023-01-30T03:26:24;16.73;;;9.23;;
7150;SDS011;3617;48.836;9.172;2023-01-30T03:28:50;21.23;;;11.23;;
7150;SDS011;3617;48.836;9.172;2023-01-30T03:31:17;15.77;;;8.97;;
7150;SDS011;3617;48.836;9.172;2023-01-30T03:33:43;18.93;;;9.53;;
7150;SDS011;3617;48.836;9.172;2023-01-30T03:36:09;18.67;;;10.27;;
7150;SDS011;3617;48.836;9.172;2023-01-30T03:38:35;16.07;;;9.47;;
7150;SDS011;3617;48.836;9.172;2023-01-30T03:41:02;16.80;;;9.23;;
7150;SDS011;3617;48.836;9.172;2023-01-30T03:43:28;16.33;;;8.97;;
7150;SDS011;3617;48.836;9.172;2023-01-30T03:45:54;16.20;;;9.17;;
7150;SDS011;3617;48.836;9.172;2023-01-30T03:48:20;20.07;;;10.00;;
7150;SDS011;3617;48.836;9.172;2023-01-30T03:50:46;17.00;;;8.90;;
7150;SDS011;3617;48.836;9.172;2023-01-30T03:53:12;16.40;;;9.10;;
7150;SDS011;3617;48.836;9.172;2023-01-30T03:55:38;17.40;;;8.87;;
7150;SDS011;3617;48.836;9.172;2023-01-30T03:58:04;15.23;;;8.63;;
7150;SDS011;3617;48.836;9.172;2023-01-30T04:00:31;14.07;;;7.40;;
7150;SDS011;3617;48.836;9.172;2023-01-30T04:02:57;17.00;;;8.60;;
7150;SDS011;3617;48.836;9.172;2023-01-30T04:05:23;13.37;;;7.57;;
7150;SDS011;3617;48.836;9.172;2023-01-30T04:07:49;13.07;;;7.37;;
7150;SDS011;3617;48.836;9.172;2023-01-30T04:10:15;15.27;;;8.07;;
7150;SDS011;3617;48.836;9.172;2023-01-30T04:12:44;13.43;;;8.00;;
7150;SDS011;3617;48.836;9.172;2023-01-30T04:15:10;14.10;;;8.40;;
7150;SDS011;3617;48.836;9.172;2023-01-30T04:17:36;14.33;;;7.47;;
7150;SDS011;3617;48.836;9.172;2023-01-30T04:20:02;12.80;;;7.23;;
7150;SDS011;3617;48.836;9.172;2023-01-30T04:22:28;13.40;;;7.60;;
7150;SDS011;3617;48.836;9.172;2023-01-30T04:24:54;15.43;;;7.10;;
7150;SDS011;3617;48.836;9.172;2023-01-30T04:27:20;11.97;;;7.23;;
7150;SDS011;3617;48.836;9.172;2023-01-30T04:29:46;14.60;;;7.70;;
7150;SDS011;3617;48.836;9.172;2023-01-30T04:32:12;13.17;;;7.73;;
7150;SDS011;3617;48.836;9.172;2023-01-30T04:34:38;14.43;;;7.17;;
7150;SDS011;3617;48.836;9.172;2023-01-30T04:37:04;11.23;;;7.40;;
7150;SDS011;3617;48.836;9.172;2023-01-30T04:39:30;12.60;;;6.97;;
7150;SDS011;3617;48.836;9.172;2023-01-30T04:41:56;11.00;;;6.63;;
7150;SDS011;3617;48.836;9.172;2023-01-30T04:44:22;12.80;;;6.60;;
7150;SDS011;3617;48.836;9.172;2023-01-30T04:46:48;10.37;;;6.00;;
7150;SDS011;3617;48.836;9.172;2023-01-30T04:49:14;10.87;;;6.70;;
7150;SDS011;3617;48.836;9.172;2023-01-30T04:51:40;13.23;;;6.60;;
7150;SDS011;3617;48.836;9.172;2023-01-30T04:54:06;8.23;;;5.63;;
7150;SDS011;3617;48.836;9.172;2023-01-30T04:56:32;10.73;;;6.87;;
7150;SDS011;3617;48.836;9.172;2023-01-30T04:58:58;10.43;;;6.63;;
7150;SDS011;3617;48.836;9.172;2023-01-30T05:01:28;11.73;;;6.03;;
7150;SDS011;3617;48.836;9.172;2023-01-30T05:03:54;10.50;;;5.73;;
7150;SDS011;3617;48.836;9.172;2023-01-30T05:06:20;8.90;;;5.60;;
7150;SDS011;3617;48.836;9.172;2023-01-30T05:08:47;10.27;;;5.97;;
7150;SDS011;3617;48.836;9.172;2023-01-30T05:11:13;12.47;;;6.57;;
7150;SDS011;3617;48.836;9.172;2023-01-30T05:13:39;10.43;;;5.70;;
7150;SDS011;3617;48.836;9.172;2023-01-30T05:16:07;10.87;;;6.63;;
7150;SDS011;3617;48.836;9.172;2023-01-30T05:18:33;9.10;;;5.87;;
7150;SDS011;3617;48.836;9.172;2023-01-30T05:21:03;9.07;;;6.17;;
7150;SDS011;3617;48.836;9.172;2023-01-30T05:23:29;8.63;;;5.70;;
7150;SDS011;3617;48.836;9.172;2023-01-30T05:25:55;10.63;;;6.27;;
7150;SDS011;3617;48.836;9.172;2023-01-30T05:28:21;9.10;;;5.30;;
7150;SDS011;3617;48.836;9.172;2023-01-30T05:30:47;10.07;;;5.67;;
7150;SDS011;3617;48.836;9.172;2023-01-30T05:33:13;7.57;;;5.13;;
7150;SDS011;3617;48.836;9.172;2023-01-30T05:35:44;10.57;;;5.80;;
7150;SDS011;3617;48.836;9.172;2023-01-30T05:38:10;9.47;;;5.37;;
7150;SDS011;3617;48.836;9.172;2023-01-30T05:40:36;9.53;;;5.50;;
7150;SDS011;3617;48.836;9.172;2023-01-30T05:43:02;9.90;;;5.97;;
7150;SDS011;3617;48.836;9.172;2023-01-30T05:45:28;11.47;;;5.80;;
7150;SDS011;3617;48.836;9.172;2023-01-30T05:47:54;8.50;;;5.70;;
7150;SDS011;3617;48.836;9.172;2023-01-30T05:50:20;9.30;;;5.70;;
7150;SDS011;3617;48.836;9.172;2023-01-30T05:52:46;12.10;;;6.07;;
7150;SDS011;3617;48.836;9.172;2023-01-30T05:55:12;9.37;;;5.97;;
7150;SDS011;3617;48.836;9.172;2023-01-30T05:57:38;9.93;;;5.53;;
7150;SDS011;3617;48.836;9.172;2023-01-30T06:00:04;10.20;;;5.60;;
7150;SDS011;3617;48.836;9.172;2023-01-30T06:02:31;10.03;;;5.90;;
7150;SDS011;3617;48.836;9.172;2023-01-30T06:04:57;12.30;;;6.67;;
7150;SDS011;3617;48.836;9.172;2023-01-30T06:07:23;9.70;;;5.87;;
7150;SDS011;3617;48.836;9.172;2023-01-30T06:09:49;11.63;;;6.17;;
7150;SDS011;3617;48.836;9.172;2023-01-30T06:12:15;10.27;;;6.80;;
7150;SDS011;3617;48.836;9.172;2023-01-30T06:14:41;11.13;;;6.53;;
7150;SDS011;3617;48.836;9.172;2023-01-30T06:17:07;9.90;;;6.83;;
7150;SDS011;3617;48.836;9.172;2023-01-30T06:19:33;9.70;;;5.87;;
7150;SDS011;3617;48.836;9.172;2023-01-30T06:21:59;12.13;;;6.27;;
7150;SDS011;3617;48.836;9.172;2023-01-30T06:24:25;10.07;;;5.77;;
7150;SDS011;3617;48.836;9.172;2023-01-30T06:26:50;11.60;;;6.47;;
7150;SDS011;3617;48.836;9.172;2023-01-30T06:29:16;9.30;;;5.00;;
7150;SDS011;3617;48.836;9.172;2023-01-30T06:31:42;10.13;;;5.30;;
7150;SDS011;3617;48.836;9.172;2023-01-30T06:34:09;8.80;;;5.37;;
7150;SDS011;3617;48.836;9.172;2023-01-30T06:36:36;10.03;;;5.93;;
7150;SDS011;3617;48.836;9.172;2023-01-30T06:39:02;8.40;;;5.37;;
7150;SDS011;3617;48.836;9.172;2023-01-30T06:41:28;7.47;;;5.53;;
7150;SDS011;3617;48.836;9.172;2023-01-30T06:43:54;8.27;;;5.53;;
7150;SDS011;3617;48.836;9.172;2023-01-30T06:46:20;10.40;;;5.57;;
7150;SDS011;3617;48.836;9.172;2023-01-30T06:48:46;10.30;;;5.83;;
7150;SDS011;3617;48.836;9.172;2023-01-30T06:51:12;8.43;;;5.50;;
7150;SDS011;3617;48.836;9.172;2023-01-30T06:53:38;9.87;;;5.67;;
7150;SDS011;3617;48.836;9.172;2023-01-30T06:56:04;7.90;;;5.73;;
7150;SDS011;3617;48.836;9.172;2023-01-30T06:58:30;8.13;;;5.10;;
7150;SDS011;3617;48.836;9.172;2023-01-30T07:00:56;8.73;;;4.83;;
7150;SDS011;3617;48.836;9.172;2023-01-30T07:03:22;7.77;;;4.90;;
7150;SDS011;3617;48.836;9.172;2023-01-30T07:05:48;8.83;;;5.57;;
7150;SDS011;3617;48.836;9.172;2023-01-30T07:08:14;10.63;;;5.43;;
7150;SDS011;3617;48.836;9.172;2023-01-30T07:10:41;8.77;;;5.53;;
7150;SDS011;3617;48.836;9.172;2023-01-30T07:13:07;9.13;;;5.70;;
7150;SDS011;3617;48.836;9.172;2023-01-30T07:15:33;7.03;;;5.17;;
7150;SDS011;3617;48.836;9.172;2023-01-30T07:17:59;10.20;;;5.20;;
7150;SDS011;3617;48.836;9.172;2023-01-30T07:20:25;9.93;;;5.67;;
7150;SDS011;3617;48.836;9.172;2023-01-30T07:22:51;8.53;;;5.43;;
7150;SDS011;3617;48.836;9.172;2023-01-30T07:25:18;10.07;;;5.60;;
7150;SDS011;3617;48.836;9.172;2023-01-30T07:27:57;7.93;;;5.23;;
7150;SDS011;3617;48.836;9.172;2023-01-30T07:30:24;8.73;;;5.90;;
7150;SDS011;3617;48.836;9.172;2023-01-30T07:32:54;9.37;;;5.40;;
7150;SDS011;3617;48.836;9.172;2023-01-30T07:35:21;9.30;;;5.80;;
7150;SDS011;3617;48.836;9.172;2023-01-30T07:37:48;11.77;;;5.13;;
7150;SDS011;3617;48.836;9.172;2023-01-30T07:40:14;7.87;;;5.10;;
7150;SDS011;3617;48.836;9.172;2023-01-30T07:42:40;10.80;;;5.90;;
7150;SDS011;3617;48.836;9.172;2023-01-30T07:45:07;10.23;;;5.30;;
7150;SDS011;3617;48.836;9.172;2023-01-30T07:47:33;8.87;;;5.47;;
7150;SDS011;3617;48.836;9.172;2023-01-30T07:49:59;9.37;;;5.13;;
7150;SDS011;3617;48.836;9.172;2023-01-30T07:52:25;9.50;;;5.23;;
7150;SDS011;3617;48.836;9.172;2023-01-30T07:54:51;7.70;;;5.30;;
7150;SDS011;3617;48.836;9.172;2023-01-30T07:57:17;10.20;;;5.17;;
7150;SDS011;3617;48.836;9.172;2023-01-30T07:59:43;10.30;;;5.47;;
7150;SDS011;3617;48.836;9.172;2023-01-30T08:02:09;10.37;;;5.57;;
7150;SDS011;3617;48.836;9.172;2023-01-30T08:04:35;9.13;;;5.43;;
7150;SDS011;3617;48.836;9.172;2023-01-30T08:07:02;11.77;;;5.27;;
7150;SDS011;3617;48.836;9.172;2023-01-30T08:09:28;7.43;;;4.63;;
7150;SDS011;3617;48.836;9.172;2023-01-30T08:11:54;7.30;;;4.93;;
7150;SDS011;3617;48.836;9.172;2023-01-30T08:14:20;10.13;;;5.80;;
7150;SDS011;3617;48.836;9.172;2023-01-30T08:16:47;11.17;;;5.40;;
7150;SDS011;3617;48.836;9.172;2023-01-30T08:19:13;9.87;;;5.43;;
7150;SDS011;3617;48.836;9.172;2023-01-30T08:21:39;7.87;;;5.23;;
7150;SDS011;3617;48.836;9.172;2023-01-30T08:24:05;9.43;;;5.30;;
7150;SDS011;3617;48.836;9.172;2023-01-30T08:26:31;9.10;;;5.40;;
7150;SDS011;3617;48.836;9.172;2023-01-30T08:28:57;9.17;;;5.60;;
7150;SDS011;3617;48.836;9.172;2023-01-30T08:31:23;7.33;;;4.83;;
7150;SDS011;3617;48.836;9.172;2023-01-30T08:33:49;10.07;;;5.37;;
7150;SDS011;3617;48.836;9.172;2023-01-30T08:36:15;10.37;;;5.43;;
7150;SDS011;3617;48.836;9.172;2023-01-30T08:38:41;9.07;;;4.77;;
7150;SDS011;3617;48.836;9.172;2023-01-30T08:41:07;12.20;;;5.83;;
7150;SDS011;3617;48.836;9.172;2023-01-30T08:43:33;9.20;;;5.57;;
7150;SDS011;3617;48.836;9.172;2023-01-30T08:45:59;7.47;;;4.50;;
7150;SDS011;3617;48.836;9.172;2023-01-30T08:48:25;9.97;;;5.00;;
7150;SDS011;3617;48.836;9.172;2023-01-30T08:50:52;8.57;;;5.10;;
7150;SDS011;3617;48.836;9.172;2023-01-30T08:53:19;8.37;;;5.07;;
7150;SDS011;3617;48.836;9.172;2023-01-30T08:55:45;7.40;;;4.43;;
7150;SDS011;3617;48.836;9.172;2023-01-30T08:58:14;8.27;;;5.07;;
7150;SDS011;3617;48.836;9.172;2023-01-30T09:00:40;10.03;;;4.87;;
7150;SDS011;3617;48.836;9.172;2023-01-30T09:03:08;7.90;;;4.90;;
7150;SDS011;3617;48.836;9.172;2023-01-30T09:05:36;7.43;;;5.33;;
7150;SDS011;3617;48.836;9.172;2023-01-30T09:08:02;6.00;;;3.87;;
7150;SDS011;3617;48.836;9.172;2023-01-30T09:10:28;7.93;;;4.47;;
7150;SDS011;3617;48.836;9.172;2023-01-30T09:12:54;7.43;;;4.33;;
7150;SDS011;3617;48.836;9.172;2023-01-30T09:15:20;6.23;;;4.00;;
7150;SDS011;3617;48.836;9.172;2023-01-30T09:17:46;7.53;;;3.90;;
7150;SDS011;3617;48.836;9.172;2023-01-30T09:20:12;5.53;;;3.07;;
7150;SDS011;3617;48.836;9.172;2023-01-30T09:22:38;4.77;;;2.83;;
7150;SDS011;3617;48.836;9.172;2023-01-30T09:25:05;4.67;;;2.70;;
7150;SDS011;3617;48.836;9.172;2023-01-30T09:27:31;4.80;;;3.00;;
7150;SDS011;3617;48.836;9.172;2023-01-30T09:29:57;4.97;;;2.63;;
7150;SDS011;3617;48.836;9.172;2023-01-30T09:32:23;3.90;;;2.73;;
7150;SDS011;3617;48.836;9.172;2023-01-30T09:34:49;4.17;;;2.57;;
7150;SDS011;3617;48.836;9.172;2023-01-30T09:37:15;3.77;;;2.70;;
7150;SDS011;3617;48.836;9.172;2023-01-30T09:39:41;3.60;;;2.77;;
7150;SDS011;3617;48.836;9.172;2023-01-30T09:42:12;4.97;;;2.90;;
7150;SDS011;3617;48.836;9.172;2023-01-30T09:54:36;4.60;;;2.93;;
7150;SDS011;3617;48.836;9.172;2023-01-30T10:04:44;4.90;;;2.70;;
7150;SDS011;3617;48.836;9.172;2023-01-30T10:25:04;4.07;;;2.77;;
7150;SDS011;3617;48.836;9.172;2023-01-30T10:27:35;3.60;;;2.50;;
7150;SDS011;3617;48.836;9.172;2023-01-30T10:30:02;5.53;;;2.70;;
7150;SDS011;3617;48.836;9.172;2023-01-30T10:32:30;3.60;;;2.57;;
7150;SDS011;3617;48.836;9.172;2023-01-30T10:34:57;3.70;;;2.60;;
7150;SDS011;3617;48.836;9.172;2023-01-30T10:37:32;5.27;;;2.80;;
7150;SDS011;3617;48.836;9.172;2023-01-30T10:42:51;6.17;;;2.83;;
7150;SDS011;3617;48.836;9.172;2023-01-30T10:45:23;4.93;;;2.60;;
7150;SDS011;3617;48.836;9.172;2023-01-30T10:47:58;4.13;;;2.63;;
7150;SDS011;3617;48.836;9.172;2023-01-30T10:50:28;4.47;;;2.17;;
7150;SDS011;3617;48.836;9.172;2023-01-30T10:52:57;3.43;;;2.20;;
7150;SDS011;3617;48.836;9.172;2023-01-30T11:05:23;2.17;;;1.80;;
7150;SDS011;3617;48.836;9.172;2023-01-30T11:07:49;4.13;;;2.13;;
7150;SDS011;3617;48.836;9.172;2023-01-30T11:10:16;2.33;;;1.77;;
7150;SDS011;3617;48.836;9.172;2023-01-30T11:12:42;2.47;;;1.93;;
7150;SDS011;3617;48.836;9.172;2023-01-30T11:15:09;2.60;;;1.53;;
7150;SDS011;3617;48.836;9.172;2023-01-30T11:17:39;3.23;;;2.03;;
7150;SDS011;3617;48.836;9.172;2023-01-30T11:20:13;2.53;;;2.00;;
7150;SDS011;3617;48.836;9.172;2023-01-30T11:22:47;2.77;;;1.80;;
7150;SDS011;3617;48.836;9.172;2023-01-30T11:25:15;3.40;;;2.00;;
7150;SDS011;3617;48.836;9.172;2023-01-30T11:27:42;2.10;;;1.90;;
7150;SDS011;3617;48.836;9.172;2023-01-30T11:30:15;1.90;;;1.70;;
7150;SDS011;3617;48.836;9.172;2023-01-30T11:32:42;2.43;;;2.00;;
7150;SDS011;3617;48.836;9.172;2023-01-30T11:37:35;2.90;;;1.60;;
7150;SDS011;3617;48.836;9.172;2023-01-30T11:42:43;3.27;;;2.43;;
7150;SDS011;3617;48.836;9.172;2023-01-30T11:45:11;3.80;;;2.00;;
7150;SDS011;3617;48.836;9.172;2023-01-30T11:47:37;3.03;;;2.17;;
7150;SDS011;3617;48.836;9.172;2023-01-30T11:50:04;3.53;;;2.30;;
7150;SDS011;3617;48.836;9.172;2023-01-30T11:52:31;3.60;;;2.53;;
7150;SDS011;3617;48.836;9.172;2023-01-30T11:54:59;2.60;;;2.13;;
7150;SDS011;3617;48.836;9.172;2023-01-30T11:57:30;2.83;;;2.13;;
7150;SDS011;3617;48.836;9.172;2023-01-30T12:00:03;2.83;;;2.13;;
7150;SDS011;3617;48.836;9.172;2023-01-30T12:02:32;3.60;;;2.67;;
7150;SDS011;3617;48.836;9.172;2023-01-30T12:05:06;4.90;;;2.80;;
7150;SDS011;3617;48.836;9.172;2023-01-30T12:07:42;2.97;;;2.40;;
7150;SDS011;3617;48.836;9.172;2023-01-30T12:12:48;4.57;;;2.07;;
7150;SDS011;3617;48.836;9.172;2023-01-30T12:17:46;3.60;;;2.63;;
7150;SDS011;3617;48.836;9.172;2023-01-30T12:28:13;4.43;;;2.70;;
7150;SDS011;3617;48.836;9.172;2023-01-30T12:30:53;3.63;;;2.70;;
7150;SDS011;3617;48.836;9.172;2023-01-30T12:33:21;4.50;;;2.70;;
7150;SDS011;3617;48.836;9.172;2023-01-30T12:35:54;4.47;;;2.93;;
7150;SDS011;3617;48.836;9.172;2023-01-30T12:43:51;3.77;;;2.60;;
7150;SDS011;3617;48.836;9.172;2023-01-30T12:46:29;4.00;;;2.63;;
7150;SDS011;3617;48.836;9.172;2023-01-30T12:54:21;3.40;;;2.60;;
7150;SDS011;3617;48.836;9.172;2023-01-30T13:12:24;3.87;;;2.93;;
7150;SDS011;3617;48.836;9.172;2023-01-30T13:17:48;3.60;;;2.83;;
7150;SDS011;3617;48.836;9.172;2023-01-30T13:20:29;3.33;;;2.63;;
7150;SDS011;3617;48.836;9.172;2023-01-30T13:23:00;4.23;;;2.77;;
7150;SDS011;3617;48.836;9.172;2023-01-30T13:30:46;3.87;;;2.70;;
7150;SDS011;3617;48.836;9.172;2023-01-30T13:33:24;7.23;;;2.90;;
7150;SDS011;3617;48.836;9.172;2023-01-30T13:38:32;4.17;;;2.30;;
7150;SDS011;3617;48.836;9.172;2023-01-30T13:40:59;2.57;;;1.43;;
7150;SDS011;3617;48.836;9.172;2023-01-30T13:43:36;1.87;;;1.60;;
7150;SDS011;3617;48.836;9.172;2023-01-30T13:46:06;2.07;;;1.33;;
7150;SDS011;3617;48.836;9.172;2023-01-30T13:53:45;2.03;;;1.77;;
7150;SDS011;3617;48.836;9.172;2023-01-30T13:58:42;2.20;;;1.70;;
7150;SDS011;3617;48.836;9.172;2023-01-30T14:01:09;3.23;;;2.03;;
7150;SDS011;3617;48.836;9.172;2023-01-30T14:03:39;2.53;;;2.00;;
7150;SDS011;3617;48.836;9.172;2023-01-30T14:06:08;2.43;;;2.10;;
7150;SDS011;3617;48.836;9.172;2023-01-30T14:08:39;3.00;;;1.90;;
7150;SDS011;3617;48.836;9.172;2023-01-30T14:11:23;1.87;;;1.67;;
7150;SDS011;3617;48.836;9.172;2023-01-30T14:13:52;3.07;;;2.10;;
7150;SDS011;3617;48.836;9.172;2023-01-30T14:16:21;3.00;;;2.30;;
7150;SDS011;3617;48.836;9.172;2023-01-30T14:18:47;3.40;;;2.30;;
7150;SDS011;3617;48.836;9.172;2023-01-30T14:21:20;3.97;;;2.53;;
7150;SDS011;3617;48.836;9.172;2023-01-30T14:26:58;2.00;;;1.73;;
7150;SDS011;3617;48.836;9.172;2023-01-30T14:32:32;2.03;;;1.83;;
7150;SDS011;3617;48.836;9.172;2023-01-30T14:37:28;3.97;;;2.27;;
7150;SDS011;3617;48.836;9.172;2023-01-30T14:39:55;2.23;;;1.83;;
7150;SDS011;3617;48.836;9.172;2023-01-30T14:42:24;2.93;;;2.00;;
7150;SDS011;3617;48.836;9.172;2023-01-30T14:47:26;3.17;;;1.73;;
7150;SDS011;3617;48.836;9.172;2023-01-30T14:49:53;3.13;;;2.20;;
7150;SDS011;3617;48.836;9.172;2023-01-30T14:53:01;3.37;;;2.20;;
7150;SDS011;3617;48.836;9.172;2023-01-30T14:55:15;2.60;;;2.30;;
7150;SDS011;3617;48.836;9.172;2023-01-30T14:57:47;3.17;;;2.30;;
7150;SDS011;3617;48.836;9.172;2023-01-30T15:00:17;2.87;;;2.30;;
7150;SDS011;3617;48.836;9.172;2023-01-30T15:02:49;4.13;;;2.73;;
7150;SDS011;3617;48.836;9.172;2023-01-30T15:05:29;3.57;;;2.47;;
7150;SDS011;3617;48.836;9.172;2023-01-30T15:08:10;4.33;;;2.50;;
7150;SDS011;3617;48.836;9.172;2023-01-30T15:25:56;4.07;;;2.67;;
7150;SDS011;3617;48.836;9.172;2023-01-30T15:33:24;5.13;;;3.10;;
7150;SDS011;3617;48.836;9.172;2023-01-30T15:35:52;3.70;;;2.80;;
7150;SDS011;3617;48.836;9.172;2023-01-30T15:38:22;6.30;;;3.00;;
7150;SDS011;3617;48.836;9.172;2023-01-30T15:40:49;4.10;;;2.53;;
7150;SDS011;3617;48.836;9.172;2023-01-30T15:45:57;4.07;;;2.87;;
7150;SDS011;3617;48.836;9.172;2023-01-30T15:50:54;6.50;;;3.63;;
7150;SDS011;3617;48.836;9.172;2023-01-30T15:53:32;6.47;;;3.43;;
7150;SDS011;3617;48.836;9.172;2023-01-30T15:55:59;7.20;;;3.67;;
7150;SDS011;3617;48.836;9.172;2023-01-30T15:58:26;7.80;;;3.57;;
7150;SDS011;3617;48.836;9.172;2023-01-30T16:00:53;7.17;;;3.37;;
7150;SDS011;3617;48.836;9.172;2023-01-30T16:03:21;5.33;;;3.20;;
7150;SDS011;3617;48.836;9.172;2023-01-30T16:05:49;5.37;;;3.63;;
7150;SDS011;3617;48.836;9.172;2023-01-30T16:08:23;5.43;;;3.27;;
7150;SDS011;3617;48.836;9.172;2023-01-30T16:10:49;4.57;;;3.30;;
7150;SDS011;3617;48.836;9.172;2023-01-30T16:13:16;4.50;;;3.23;;
7150;SDS011;3617;48.836;9.172;2023-01-30T16:24:02;4.13;;;3.13;;
7150;SDS011;3617;48.836;9.172;2023-01-30T16:26:28;6.83;;;3.90;;
7150;SDS011;3617;48.836;9.172;2023-01-30T16:29:05;6.97;;;3.43;;
7150;SDS011;3617;48.836;9.172;2023-01-30T16:31:32;5.57;;;3.37;;
7150;SDS011;3617;48.836;9.172;2023-01-30T16:33:59;4.83;;;3.97;;
7150;SDS011;3617;48.836;9.172;2023-01-30T16:38:54;6.63;;;3.73;;
7150;SDS011;3617;48.836;9.172;2023-01-30T16:44:15;5.27;;;3.33;;
7150;SDS011;3617;48.836;9.172;2023-01-30T16:46:53;5.80;;;3.60;;
7150;SDS011;3617;48.836;9.172;2023-01-30T16:51:49;5.43;;;3.67;;
7150;SDS011;3617;48.836;9.172;2023-01-30T16:54:23;7.77;;;3.77;;
7150;SDS011;3617;48.836;9.172;2023-01-30T16:56:52;5.60;;;3.43;;
7150;SDS011;3617;48.836;9.172;2023-01-30T16:59:19;7.67;;;3.77;;
7150;SDS011;3617;48.836;9.172;2023-01-30T17:01:46;4.80;;;3.47;;
7150;SDS011;3617;48.836;9.172;2023-01-30T17:04:22;5.60;;;3.73;;
7150;SDS011;3617;48.836;9.172;2023-01-30T17:06:56;5.60;;;3.53;;
7150;SDS011;3617;48.836;9.172;2023-01-30T17:09:32;4.57;;;3.50;;
7150;SDS011;3617;48.836;9.172;2023-01-30T17:11:59;6.13;;;3.33;;
7150;SDS011;3617;48.836;9.172;2023-01-30T17:14:25;5.13;;;3.33;;
7150;SDS011;3617;48.836;9.172;2023-01-30T17:17:03;6.63;;;3.77;;
7150;SDS011;3617;48.836;9.172;2023-01-30T17:19:36;7.30;;;3.53;;
7150;SDS011;3617;48.836;9.172;2023-01-30T17:22:03;9.30;;;4.17;;
7150;SDS011;3617;48.836;9.172;2023-01-30T17:24:30;6.67;;;3.73;;
7150;SDS011;3617;48.836;9.172;2023-01-30T17:26:58;7.57;;;3.60;;
7150;SDS011;3617;48.836;9.172;2023-01-30T17:29:26;8.63;;;3.77;;
7150;SDS011;3617;48.836;9.172;2023-01-30T17:31:53;5.90;;;4.10;;
7150;SDS011;3617;48.836;9.172;2023-01-30T17:34:19;6.87;;;4.30;;
7150;SDS011;3617;48.836;9.172;2023-01-30T17:36:47;5.00;;;3.87;;
7150;SDS011;3617;48.836;9.172;2023-01-30T17:39:14;6.67;;;4.17;;
7150;SDS011;3617;48.836;9.172;2023-01-30T17:41:40;5.60;;;3.90;;
7150;SDS011;3617;48.836;9.172;2023-01-30T17:44:07;6.87;;;4.10;;
7150;SDS011;3617;48.836;9.172;2023-01-30T17:46:43;6.93;;;3.90;;
7150;SDS011;3617;48.836;9.172;2023-01-30T17:49:17;5.73;;;3.80;;
7150;SDS011;3617;48.836;9.172;2023-01-30T17:51:43;8.77;;;4.73;;
7150;SDS011;3617;48.836;9.172;2023-01-30T17:54:10;7.17;;;4.47;;
7150;SDS011;3617;48.836;9.172;2023-01-30T17:56:37;5.93;;;4.17;;
7150;SDS011;3617;48.836;9.172;2023-01-30T17:59:04;7.77;;;4.43;;
7150;SDS011;3617;48.836;9.172;2023-01-30T18:01:31;5.47;;;4.07;;
7150;SDS011;3617;48.836;9.172;2023-01-30T18:03:57;5.53;;;3.83;;
7150;SDS011;3617;48.836;9.172;2023-01-30T18:06:23;6.07;;;3.83;;
7150;SDS011;3617;48.836;9.172;2023-01-30T18:08:51;5.27;;;3.97;;
7150;SDS011;3617;48.836;9.172;2023-01-30T18:11:17;6.57;;;3.90;;
7150;SDS011;3617;48.836;9.172;2023-01-30T18:13:43;6.27;;;4.30;;
7150;SDS011;3617;48.836;9.172;2023-01-30T18:16:29;6.57;;;4.30;;
7150;SDS011;3617;48.836;9.172;2023-01-30T18:18:56;5.80;;;3.37;;
7150;SDS011;3617;48.836;9.172;2023-01-30T18:21:23;6.50;;;4.20;;
7150;SDS011;3617;48.836;9.172;2023-01-30T18:23:49;6.70;;;4.33;;
7150;SDS011;3617;48.836;9.172;2023-01-30T18:26:15;8.43;;;4.57;;
7150;SDS011;3617;48.836;9.172;2023-01-30T18:28:41;12.23;;;4.47;;